Time;durP1;ratioP1;P1;durP2;ratioP2;P2;SDS_P1;SDS_P2;PMS_P1;PMS_P2;Temp;Humidity;BMP_temperature;BMP_pressure;BME280_temperature;BME280_humidity;BME280_pressure;Samples;Min_cycle;Max_cycle;Signal;HPM_P1;HPM_P2
2022/10/01 00:00:25;;;;;;;5.30;4.78;;;;;;;11.02;100.00;100205.25;5032978;28;20029;-66
2022/10/01 00:02:51;;;;;;;10.32;5.38;;;;;;;11.00;100.00;100204.47;5032322;28;20037;-63
2022/10/01 00:05:16;;;;;;;8.40;5.07;;;;;;;10.97;100.00;100189.66;5033359;28;20475;-67
2022/10/01 00:07:43;;;;;;;8.20;4.80;;;;;;;11.02;100.00;100178.91;5031817;28;20121;-69
2022/10/01 00:10:10;;;;;;;5.80;4.65;;;;;;;11.02;100.00;100160.44;5032824;28;20049;-64
2022/10/01 00:12:36;;;;;;;8.00;4.70;;;;;;;11.01;100.00;100161.34;5033707;28;20053;-62
2022/10/01 00:15:02;;;;;;;8.13;4.32;;;;;;;10.97;100.00;100155.38;5033088;28;20030;-62
2022/10/01 00:17:28;;;;;;;6.85;5.05;;;;;;;10.96;100.00;100143.13;5032876;28;20021;-67
2022/10/01 00:19:53;;;;;;;5.97;4.30;;;;;;;10.93;100.00;100135.34;5033177;28;20021;-68
2022/10/01 00:22:19;;;;;;;5.10;3.95;;;;;;;10.97;100.00;100141.34;5031906;28;20075;-65
2022/10/01 00:24:46;;;;;;;7.18;4.30;;;;;;;11.00;100.00;100143.84;5030328;28;20152;-64
2022/10/01 00:27:12;;;;;;;6.75;4.25;;;;;;;11.00;100.00;100122.75;5061038;28;20036;-63
2022/10/01 00:29:38;;;;;;;6.10;4.35;;;;;;;11.01;100.00;100124.44;5029687;28;20033;-63
2022/10/01 00:32:03;;;;;;;5.95;3.70;;;;;;;11.02;100.00;100118.28;5028111;28;20116;-65
2022/10/01 00:34:29;;;;;;;6.65;3.65;;;;;;;10.99;100.00;100118.41;5028858;28;20097;-65
2022/10/01 00:36:54;;;;;;;6.25;3.67;;;;;;;11.00;100.00;100117.47;5028338;28;20040;-65
2022/10/01 00:39:20;;;;;;;3.88;3.47;;;;;;;11.03;100.00;100112.06;5029227;28;20480;-62
2022/10/01 00:41:45;;;;;;;3.72;3.38;;;;;;;11.01;100.00;100099.88;5027969;28;20029;-65
2022/10/01 00:44:33;;;;;;;5.85;3.42;;;;;;;11.05;100.00;100102.28;5028612;28;20026;-62
2022/10/01 00:47:25;;;;;;;5.03;3.70;;;;;;;11.05;100.00;100097.00;5029224;28;20036;-66
2022/10/01 00:49:54;;;;;;;4.10;3.78;;;;;;;11.03;100.00;100090.97;5027826;28;20033;-65
2022/10/01 00:52:24;;;;;;;4.28;3.50;;;;;;;11.01;100.00;100103.34;5027757;28;20033;-62
2022/10/01 00:54:51;;;;;;;;;;;;;;;10.99;100.00;100078.88;5062051;28;20087;-63
2022/10/01 00:57:21;;;;;;;3.63;3.33;;;;;;;11.04;100.00;100089.16;5030411;28;19956;-63
2022/10/01 00:59:47;;;;;;;4.65;3.67;;;;;;;11.06;100.00;100063.59;5061003;28;20128;-68
2022/10/01 01:02:12;;;;;;;5.13;3.47;;;;;;;11.05;100.00;100048.72;5029287;28;20049;-63
2022/10/01 01:04:39;;;;;;;4.47;3.75;;;;;;;11.07;100.00;100066.16;5029214;28;20120;-65
2022/10/01 01:07:05;;;;;;;6.05;4.15;;;;;;;11.10;100.00;100054.59;5059487;28;20049;-65
2022/10/01 01:09:37;;;;;;;3.45;3.15;;;;;;;11.12;100.00;100056.25;5028885;28;20045;-64
2022/10/01 01:12:17;;;;;;;5.68;3.47;;;;;;;11.12;100.00;100051.00;5029209;28;20030;-65
2022/10/01 01:15:10;;;;;;;4.90;3.40;;;;;;;11.08;100.00;100035.38;5121353;22;20060;-66
2022/10/01 01:17:42;;;;;;;5.03;4.10;;;;;;;11.11;100.00;100020.25;5049423;28;20024;-65
2022/10/01 01:20:33;;;;;;;4.70;3.53;;;;;;;11.09;100.00;100037.94;5049385;28;20029;-65
2022/10/01 01:23:13;;;;;;;7.05;4.40;;;;;;;11.17;100.00;100031.44;5047859;28;20033;-63
2022/10/01 01:26:01;;;;;;;4.68;3.85;;;;;;;11.08;100.00;100025.69;5048779;28;20047;-64
2022/10/01 01:28:33;;;;;;;4.47;3.17;;;;;;;11.15;100.00;100025.38;5048794;28;20061;-62
2022/10/01 01:31:02;;;;;;;6.47;3.88;;;;;;;11.15;100.00;100020.09;5049050;28;20032;-64
2022/10/01 01:33:29;;;;;;;8.20;3.60;;;;;;;11.16;100.00;100040.25;5031164;28;20459;-62
2022/10/01 01:35:58;;;;;;;4.35;3.05;;;;;;;11.22;100.00;100053.16;5018790;28;20444;-64
2022/10/01 01:38:28;;;;;;;6.78;3.22;;;;;;;11.31;100.00;100036.00;5011506;28;20100;-62
2022/10/01 01:40:56;;;;;;;4.35;3.53;;;;;;;11.36;100.00;100034.00;5011527;28;20104;-64
2022/10/01 01:43:25;;;;;;;2.60;2.40;;;;;;;11.34;100.00;100033.22;5020173;28;20019;-64
2022/10/01 01:45:53;;;;;;;;;;;;;;;11.41;100.00;100025.88;5031997;28;20090;-64
2022/10/01 01:48:20;;;;;;;3.45;2.55;;;;;;;11.41;100.00;100010.03;5048451;28;20383;-65
2022/10/01 01:50:51;;;;;;;5.50;2.90;;;;;;;11.41;100.00;100036.41;5027182;28;20037;-64
2022/10/01 01:53:17;;;;;;;5.13;2.80;;;;;;;11.41;100.00;100031.16;5011612;28;20025;-65
2022/10/01 01:55:44;;;;;;;3.00;2.58;;;;;;;11.44;100.00;100016.00;5028699;28;20040;-63
2022/10/01 01:58:10;;;;;;;2.55;2.17;;;;;;;11.47;100.00;100025.56;5027954;28;20364;-63
2022/10/01 02:00:35;;;;;;;3.53;2.20;;;;;;;11.51;100.00;100021.84;5029383;28;20031;-64
2022/10/01 02:03:01;;;;;;;4.05;2.45;;;;;;;11.44;100.00;100015.16;5048363;28;20029;-65
2022/10/01 02:05:31;;;;;;;5.95;2.13;;;;;;;11.51;100.00;100027.09;5030143;28;20036;-64
2022/10/01 02:08:17;;;;;;;3.33;2.60;;;;;;;11.44;100.00;100020.44;5046697;28;20025;-62
2022/10/01 02:11:08;;;;;;;2.60;2.40;;;;;;;11.52;100.00;100012.13;5047229;28;20469;-61
2022/10/01 02:13:52;;;;;;;2.67;2.47;;;;;;;11.52;100.00;100018.25;5036821;28;20033;-63
2022/10/01 02:16:29;;;;;;;3.58;2.70;;;;;;;11.54;100.00;100016.41;5029678;28;20498;-63
2022/10/01 02:19:16;;;;;;;2.70;2.47;;;;;;;11.56;100.00;100019.78;5048194;28;20021;-61
2022/10/01 02:22:00;;;;;;;2.72;2.53;;;;;;;11.58;100.00;100033.78;5047491;28;20033;-62
2022/10/01 02:24:37;;;;;;;2.63;2.42;;;;;;;11.57;100.00;100012.75;5028267;28;20028;-63
2022/10/01 02:27:06;;;;;;;2.83;2.53;;;;;;;11.58;100.00;100017.09;5046586;28;20079;-61
2022/10/01 02:29:33;;;;;;;2.85;2.65;;;;;;;11.61;100.00;100020.44;5024073;28;20079;-61
2022/10/01 02:31:59;;;;;;;2.95;2.53;;;;;;;11.70;100.00;100032.28;5046181;28;20036;-62
2022/10/01 02:34:28;;;;;;;2.85;2.30;;;;;;;11.73;100.00;100026.00;5047237;28;20029;-62
2022/10/01 02:36:54;;;;;;;2.92;2.50;;;;;;;11.74;100.00;100020.63;5028544;28;20107;-63
2022/10/01 02:39:21;;;;;;;3.10;2.72;;;;;;;11.77;100.00;100016.13;5029002;28;20112;-63
2022/10/01 02:41:49;;;;;;;4.75;2.63;;;;;;;11.78;100.00;100015.19;5030070;28;20025;-61
2022/10/01 02:44:22;;;;;;;2.92;2.70;;;;;;;11.82;100.00;100024.66;5046742;28;20018;-59
2022/10/01 02:46:53;;;;;;;3.85;2.70;;;;;;;11.82;100.00;100014.97;5047093;28;20024;-64
2022/10/01 02:49:19;;;;;;;3.03;2.83;;;;;;;11.90;100.00;100011.06;5029652;28;20057;-63
2022/10/01 02:51:54;;;;;;;4.20;2.90;;;;;;;11.88;100.00;100009.38;5046237;28;20108;-62
2022/10/01 02:54:34;;;;;;;3.22;2.92;;;;;;;11.92;100.00;100012.69;5030466;28;20043;-63
2022/10/01 02:59:44;;;;;;;6.07;3.13;;;;;;;11.99;100.00;100002.66;5028219;28;20180;-63
2022/10/01 03:02:09;;;;;;;3.65;3.00;;;;;;;12.02;100.00;100002.50;5028011;28;20030;-62
2022/10/01 03:04:35;;;;;;;5.68;3.15;;;;;;;12.00;100.00;100005.22;5040646;28;20032;-61
2022/10/01 03:07:02;;;;;;;4.68;3.00;;;;;;;12.08;100.00;100006.63;5027316;28;20036;-65
2022/10/01 03:09:31;;;;;;;3.40;3.10;;;;;;;12.08;100.00;99994.28;5045432;28;20033;-62
2022/10/01 03:11:58;;;;;;;5.15;2.95;;;;;;;12.17;100.00;100005.28;5046882;28;20463;-62
2022/10/01 03:14:23;;;;;;;3.17;2.88;;;;;;;12.19;100.00;99998.97;5027998;28;20442;-62
2022/10/01 03:16:52;;;;;;;3.30;3.10;;;;;;;12.23;100.00;100005.81;5047356;28;20032;-62
2022/10/01 03:19:18;;;;;;;;;;;;;;;12.23;100.00;100002.31;5048118;28;20394;-61
2022/10/01 03:21:43;;;;;;;2.92;2.72;;;;;;;12.26;100.00;99991.56;5029218;28;20003;-62
2022/10/01 03:24:09;;;;;;;3.33;3.03;;;;;;;12.29;100.00;99999.34;5030655;28;20749;-60
2022/10/01 03:26:35;;;;;;;3.90;2.70;;;;;;;12.35;100.00;100001.66;5027972;28;20021;-63
2022/10/01 03:29:00;;;;;;;4.60;2.88;;;;;;;12.38;100.00;100003.25;5029846;28;20514;-63
2022/10/01 03:31:26;;;;;;;4.18;3.13;;;;;;;12.38;100.00;99998.81;5046682;28;20104;-62
2022/10/01 03:33:51;;;;;;;6.75;2.85;;;;;;;12.45;100.00;100009.03;5046229;28;20039;-62
2022/10/01 03:36:17;;;;;;;5.38;2.92;;;;;;;12.48;100.00;100016.81;5047153;28;20020;-62
2022/10/01 03:38:42;;;;;;;3.35;2.70;;;;;;;12.52;100.00;100007.75;5046042;28;20102;-64
2022/10/01 03:41:08;;;;;;;3.75;2.58;;;;;;;12.44;100.00;100004.69;5047524;28;20032;-62
2022/10/01 03:43:33;;;;;;;4.30;2.60;;;;;;;12.51;100.00;100012.22;5046624;28;20162;-61
2022/10/01 03:46:00;;;;;;;2.22;2.03;;;;;;;12.60;100.00;100015.28;5033082;28;20500;-62
2022/10/01 03:48:26;;;;;;;2.42;2.22;;;;;;;12.62;100.00;100008.94;5026776;28;20037;-61
2022/10/01 03:50:56;;;;;;;3.30;2.10;;;;;;;12.71;100.00;100015.53;5029188;28;20568;-61
2022/10/01 03:53:22;;;;;;;4.38;2.30;;;;;;;12.71;100.00;100001.47;5046730;28;20464;-62
2022/10/01 03:55:47;;;;;;;2.80;1.95;;;;;;;12.71;100.00;100007.59;5046308;28;20104;-62
2022/10/01 03:58:13;;;;;;;3.08;2.10;;;;;;;12.76;100.00;100031.97;5045876;28;20450;-62
2022/10/01 04:00:38;;;;;;;2.00;1.85;;;;;;;12.76;100.00;100031.13;5050356;28;20056;-62
2022/10/01 04:03:03;;;;;;;2.35;2.15;;;;;;;12.79;100.00;100040.69;5049456;28;20040;-62
2022/10/01 04:05:29;;;;;;;4.70;1.98;;;;;;;12.74;100.00;100049.69;5050472;28;20037;-60
2022/10/01 04:07:54;;;;;;;6.00;2.42;;;;;;;12.76;100.00;100050.47;5049062;28;20364;-62
2022/10/01 04:10:19;;;;;;;3.97;2.30;;;;;;;12.76;100.00;100042.56;5033254;28;20492;-65
2022/10/01 04:12:45;;;;;;;2.47;2.00;;;;;;;12.77;100.00;100044.25;5030714;28;20471;-63
2022/10/01 04:15:10;;;;;;;3.38;2.10;;;;;;;12.83;100.00;100048.38;5035982;28;20037;-62
2022/10/01 04:17:36;;;;;;;5.25;2.08;;;;;;;12.85;100.00;100050.88;5049443;28;20175;-61
2022/10/01 04:20:01;;;;;;;3.38;2.10;;;;;;;12.94;100.00;100057.47;5049433;28;20086;-62
2022/10/01 04:22:26;;;;;;;6.10;2.15;;;;;;;12.97;100.00;100070.50;5048802;28;20475;-62
2022/10/01 04:24:52;;;;;;;8.25;2.17;;;;;;;13.03;100.00;100064.88;5050564;28;20037;-63
2022/10/01 04:27:18;;;;;;;3.63;2.03;;;;;;;13.07;100.00;100074.34;5045895;28;20128;-64
2022/10/01 04:29:43;;;;;;;11.70;1.98;;;;;;;13.10;100.00;100070.69;5045410;28;20035;-62
2022/10/01 04:32:08;;;;;;;3.03;1.70;;;;;;;13.16;100.00;100075.63;5049870;28;20108;-62
2022/10/01 04:34:51;;;;;;;5.00;2.05;;;;;;;13.19;100.00;100074.59;5049069;28;20816;-63
2022/10/01 04:37:18;;;;;;;3.30;2.10;;;;;;;13.22;100.00;100095.56;5050163;28;20027;-63
2022/10/01 04:39:43;;;;;;;3.20;1.52;;;;;;;13.22;100.00;100088.47;5032593;28;20120;-61
2022/10/01 04:42:08;;;;;;;4.93;1.90;;;;;;;13.18;100.00;100084.31;5031672;28;20211;-63
2022/10/01 04:44:34;;;;;;;3.85;1.83;;;;;;;13.12;100.00;100096.09;5049610;28;20028;-62
2022/10/01 04:47:00;;;;;;;3.97;1.85;;;;;;;13.06;100.00;100085.84;5050191;28;20463;-62
2022/10/01 04:49:25;;;;;;;5.70;1.98;;;;;;;13.06;100.00;100091.16;5048645;28;20017;-63
2022/10/01 04:51:51;;;;;;;4.88;1.90;;;;;;;13.04;100.00;100103.63;5049097;28;20017;-63
2022/10/01 04:54:16;;;;;;;3.90;1.80;;;;;;;12.98;100.00;100103.97;5050224;28;20043;-62
2022/10/01 04:56:41;;;;;;;6.32;2.10;;;;;;;12.91;100.00;100103.44;5049047;28;20017;-63
2022/10/01 04:59:06;;;;;;;9.50;2.35;;;;;;;12.82;100.00;100109.25;5047404;28;20388;-62
2022/10/01 05:01:32;;;;;;;6.40;2.63;;;;;;;12.72;100.00;100116.81;5048798;28;20051;-62
2022/10/01 05:03:57;;;;;;;8.90;3.00;;;;;;;12.68;100.00;100110.00;5049109;28;20029;-62
2022/10/01 05:06:23;;;;;;;8.52;2.83;;;;;;;12.63;100.00;100110.25;5047566;28;20082;-63
2022/10/01 05:08:48;;;;;;;4.63;2.50;;;;;;;12.58;100.00;100120.22;5048210;28;20029;-64
2022/10/01 05:11:14;;;;;;;5.28;2.60;;;;;;;12.53;100.00;100131.03;5048931;28;20557;-62
2022/10/01 05:13:40;;;;;;;5.50;2.80;;;;;;;12.50;100.00;100125.91;5048557;28;20051;-63
2022/10/01 05:16:06;;;;;;;8.95;2.95;;;;;;;12.46;100.00;100134.94;5048139;28;20122;-63
2022/10/01 05:18:31;;;;;;;8.25;2.70;;;;;;;12.40;100.00;100132.63;5048698;28;20582;-63
2022/10/01 05:20:57;;;;;;;5.50;3.17;;;;;;;12.36;100.00;100143.34;5047417;28;20029;-63
2022/10/01 05:23:22;;;;;;;7.72;3.10;;;;;;;12.37;100.00;100144.19;5049852;28;20586;-63
2022/10/01 05:25:47;;;;;;;10.20;3.55;;;;;;;12.38;100.00;100144.09;5049259;28;20033;-66
2022/10/01 05:28:15;;;;;;;8.60;3.60;;;;;;;12.45;100.00;100151.72;5048694;28;20078;-63
2022/10/01 05:30:40;;;;;;;8.82;4.10;;;;;;;12.47;100.00;100158.66;5048710;28;20036;-63
2022/10/01 05:33:05;;;;;;;9.90;3.22;;;;;;;12.43;100.00;100164.19;5048905;28;20021;-63
2022/10/01 05:35:31;;;;;;;9.05;3.75;;;;;;;12.43;100.00;100161.53;5048255;28;20033;-63
2022/10/01 05:37:58;;;;;;;8.40;3.60;;;;;;;12.41;100.00;100164.25;5048961;28;20064;-63
2022/10/01 05:40:26;;;;;;;5.28;3.00;;;;;;;12.41;100.00;100180.09;5047552;28;20463;-65
2022/10/01 05:42:52;;;;;;;12.80;4.00;;;;;;;12.42;100.00;100176.53;5048991;28;20036;-63
2022/10/01 05:45:21;;;;;;;14.65;4.70;;;;;;;12.43;100.00;100178.22;5048585;28;20048;-63
2022/10/01 05:47:48;;;;;;;10.10;3.63;;;;;;;12.43;100.00;100193.25;5048548;28;20074;-63
2022/10/01 05:50:14;;;;;;;15.32;3.55;;;;;;;12.43;100.00;100187.94;5049138;28;20029;-64
2022/10/01 05:52:47;;;;;;;13.80;3.30;;;;;;;12.47;100.00;100189.50;5047536;28;20032;-63
2022/10/01 05:55:12;;;;;;;10.70;3.70;;;;;;;12.47;100.00;100194.78;5047969;28;20155;-64
2022/10/01 05:57:37;;;;;;;9.90;3.78;;;;;;;12.44;100.00;100194.94;5048173;28;20160;-65
2022/10/01 06:00:03;;;;;;;12.23;4.13;;;;;;;12.40;100.00;100196.03;5047943;28;20025;-65
2022/10/01 06:02:29;;;;;;;11.65;4.20;;;;;;;12.38;100.00;100199.59;5034576;28;20022;-65
2022/10/01 06:04:54;;;;;;;7.75;3.67;;;;;;;12.37;100.00;100203.19;5028149;28;20108;-64
2022/10/01 06:07:19;;;;;;;11.77;3.97;;;;;;;12.36;100.00;100204.13;5008674;28;20041;-65
2022/10/01 06:09:45;;;;;;;11.73;4.32;;;;;;;12.35;100.00;100202.41;5044078;28;20028;-63
2022/10/01 06:12:10;;;;;;;11.75;4.50;;;;;;;12.36;100.00;100195.31;5029720;28;20029;-63
2022/10/01 06:14:35;;;;;;;12.13;4.60;;;;;;;12.42;100.00;100205.59;5046115;28;20060;-66
2022/10/01 06:17:01;;;;;;;9.82;4.60;;;;;;;12.54;100.00;100193.53;5047828;28;20029;-63
2022/10/01 06:19:26;;;;;;;10.57;4.55;;;;;;;12.64;100.00;100192.09;5046861;28;20152;-64
2022/10/01 06:21:51;;;;;;;15.43;5.22;;;;;;;12.77;100.00;100207.31;5045079;28;20108;-64
2022/10/01 06:24:17;;;;;;;11.75;4.97;;;;;;;12.95;100.00;100216.06;5038548;28;20164;-63
2022/10/01 06:26:42;;;;;;;14.23;5.53;;;;;;;13.08;100.00;100207.44;5027715;28;20112;-64
2022/10/01 06:29:09;;;;;;;14.05;4.80;;;;;;;13.28;100.00;100216.94;5044632;28;20072;-64
2022/10/01 06:31:34;;;;;;;10.57;4.30;;;;;;;13.48;100.00;100217.59;5046248;28;20049;-64
2022/10/01 06:33:59;;;;;;;9.55;3.95;;;;;;;13.66;100.00;100220.19;5045763;28;20479;-64
2022/10/01 06:36:25;;;;;;;15.77;4.00;;;;;;;13.83;100.00;100230.66;5043612;28;20052;-63
2022/10/01 06:38:50;;;;;;;12.02;3.22;;;;;;;13.96;100.00;100235.22;5034754;28;20067;-64
2022/10/01 06:41:17;;;;;;;14.32;3.22;;;;;;;13.99;100.00;100232.41;5037953;28;20025;-63
2022/10/01 06:43:42;;;;;;;9.85;2.80;;;;;;;13.97;100.00;100231.66;5034677;28;20381;-64
2022/10/01 06:46:08;;;;;;;14.10;2.90;;;;;;;13.92;100.00;100236.34;5038714;28;20048;-63
2022/10/01 06:48:35;;;;;;;12.13;2.78;;;;;;;13.80;100.00;100237.91;5033980;28;20029;-63
2022/10/01 06:51:00;;;;;;;10.75;2.88;;;;;;;13.72;100.00;100241.00;5036089;28;20025;-62
2022/10/01 06:53:27;;;;;;;12.63;2.83;;;;;;;13.60;100.00;100232.81;5035895;28;20099;-63
2022/10/01 06:55:52;;;;;;;16.88;3.38;;;;;;;13.53;100.00;100239.41;5035509;28;20384;-63
2022/10/01 06:58:19;;;;;;;9.95;3.28;;;;;;;13.45;100.00;100237.16;5035999;28;20048;-63
2022/10/01 07:00:46;;;;;;;13.80;3.78;;;;;;;13.45;100.00;100238.97;5038243;28;20013;-64
2022/10/01 07:03:20;;;;;;;10.90;3.33;;;;;;;13.52;100.00;100240.34;5035711;28;20348;-64
2022/10/01 07:05:45;;;;;;;15.25;3.13;;;;;;;13.70;100.00;100240.25;5038156;28;20019;-64
2022/10/01 07:08:11;;;;;;;15.43;3.28;;;;;;;13.90;100.00;100247.03;5017611;28;20021;-63
2022/10/01 07:10:37;;;;;;;9.75;2.50;;;;;;;14.08;100.00;100253.06;5017517;28;20472;-63
2022/10/01 07:13:17;;;;;;;10.77;2.70;;;;;;;14.14;100.00;100258.03;5037642;28;20086;-62
2022/10/01 07:15:43;;;;;;;10.48;2.42;;;;;;;14.24;100.00;100255.66;5043745;28;20041;-63
2022/10/01 07:18:08;;;;;;;10.75;2.47;;;;;;;14.31;100.00;100257.97;5045786;28;20063;-62
2022/10/01 07:20:38;;;;;;;12.32;2.80;;;;;;;14.43;100.00;100264.34;5026452;28;20052;-63
2022/10/01 07:23:04;;;;;;;10.90;2.63;;;;;;;14.60;100.00;100264.16;5026916;28;20264;-63
2022/10/01 07:25:30;;;;;;;10.75;2.78;;;;;;;14.98;100.00;100262.81;5044608;28;20394;-62
2022/10/01 07:27:57;;;;;;;6.18;2.25;;;;;;;15.30;100.00;100261.75;5045603;28;20028;-64
2022/10/01 07:30:23;;;;;;;11.38;2.67;;;;;;;15.43;100.00;100275.09;5044638;28;20456;-62
2022/10/01 07:32:48;;;;;;;13.25;2.67;;;;;;;15.37;100.00;100272.81;5045475;28;20024;-64
2022/10/01 07:35:15;;;;;;;14.07;2.30;;;;;;;15.25;100.00;100285.06;5048198;28;20029;-61
2022/10/01 07:37:40;;;;;;;8.88;2.08;;;;;;;15.13;100.00;100284.03;5045923;28;20022;-61
2022/10/01 07:40:06;;;;;;;11.57;2.45;;;;;;;15.01;100.00;100289.16;5033207;28;20037;-62
2022/10/01 07:42:31;;;;;;;11.20;2.25;;;;;;;15.03;100.00;100289.91;5042313;28;20028;-61
2022/10/01 07:44:57;;;;;;;14.82;2.28;;;;;;;15.26;100.00;100298.25;5042811;28;20041;-62
2022/10/01 07:47:22;;;;;;;11.52;2.55;;;;;;;15.59;100.00;100288.25;5045267;28;20021;-63
2022/10/01 07:49:47;;;;;;;9.15;2.30;;;;;;;15.88;100.00;100287.31;5048417;28;20475;-64
2022/10/01 07:52:12;;;;;;;10.18;2.03;;;;;;;15.90;100.00;100296.03;5048453;28;20514;-64
2022/10/01 07:54:38;;;;;;;11.80;2.10;;;;;;;15.76;100.00;100310.22;5048901;28;20108;-63
2022/10/01 07:57:03;;;;;;;15.13;2.35;;;;;;;15.69;100.00;100315.06;5049953;28;20068;-63
2022/10/01 07:59:30;;;;;;;17.27;2.45;;;;;;;15.64;100.00;100323.34;5050078;28;20382;-63
2022/10/01 08:01:55;;;;;;;16.90;2.53;;;;;;;15.57;100.00;100321.16;5048485;28;20033;-66
2022/10/01 08:07:05;;;;;;;12.18;2.50;;;;;;;15.36;100.00;100342.81;5045841;28;20572;-65
2022/10/01 08:09:30;;;;;;;12.65;2.80;;;;;;;15.33;100.00;100341.19;5034912;28;20030;-64
2022/10/01 08:11:56;;;;;;;15.43;2.50;;;;;;;15.39;100.00;100345.28;5030411;28;20091;-66
2022/10/01 08:14:21;;;;;;;16.50;2.90;;;;;;;15.43;100.00;100341.47;5042495;28;20028;-65
2022/10/01 08:16:47;;;;;;;12.65;2.40;;;;;;;15.64;100.00;100343.72;5051002;28;20094;-65
2022/10/01 08:19:14;;;;;;;8.73;2.08;;;;;;;15.89;100.00;100345.66;5046197;28;20033;-63
2022/10/01 08:21:40;;;;;;;14.30;2.33;;;;;;;15.97;100.00;100354.97;5038391;28;20056;-64
2022/10/01 08:24:05;;;;;;;19.50;2.90;;;;;;;15.91;100.00;100356.19;5040778;28;20045;-65
2022/10/01 08:26:31;;;;;;;15.38;2.80;;;;;;;15.83;100.00;100359.31;5044538;28;20067;-65
2022/10/01 08:28:56;;;;;;;15.00;2.72;;;;;;;15.82;100.00;100352.31;5044168;28;20033;-66
2022/10/01 08:31:22;;;;;;;10.80;2.25;;;;;;;16.04;100.00;100366.91;5046163;28;20025;-65
2022/10/01 08:33:47;;;;;;;11.43;2.10;;;;;;;16.32;99.60;100364.25;5049475;28;20031;-62
2022/10/01 08:36:13;;;;;;;13.85;2.17;;;;;;;16.51;98.51;100380.69;5048335;28;20036;-66
2022/10/01 08:38:39;;;;;;;15.13;2.22;;;;;;;16.70;97.70;100371.47;5048821;28;20032;-65
2022/10/01 08:41:22;;;;;;;17.60;2.35;;;;;;;16.84;97.12;100375.88;5049825;28;20060;-65
2022/10/01 08:43:49;;;;;;;11.60;2.00;;;;;;;16.77;93.90;100379.91;5047911;28;20024;-63
2022/10/01 08:46:20;;;;;;;11.98;2.30;;;;;;;16.63;95.09;100384.34;5031112;28;20040;-67
2022/10/01 08:48:55;;;;;;;9.43;2.38;;;;;;;16.58;95.84;100396.25;5050373;28;20664;-64
2022/10/01 08:51:26;;;;;;;15.45;2.85;;;;;;;16.36;95.62;100405.63;5048517;28;20040;-66
2022/10/01 08:53:58;;;;;;;12.77;2.58;;;;;;;16.21;95.97;100410.13;5050218;28;20021;-64
2022/10/01 08:56:29;;;;;;;17.27;2.25;;;;;;;16.25;96.58;100407.19;5019656;28;20384;-64
2022/10/01 08:58:57;;;;;;;11.98;2.38;;;;;;;16.30;95.68;100404.22;5011837;28;20097;-65
2022/10/01 09:01:24;;;;;;;10.15;2.15;;;;;;;16.29;96.01;100418.47;5012185;28;20176;-65
2022/10/01 09:03:49;;;;;;;15.65;2.63;;;;;;;16.38;96.35;100409.88;5034946;28;20467;-64
2022/10/01 09:06:20;;;;;;;15.18;2.70;;;;;;;16.51;96.78;100420.59;5022671;28;20013;-65
2022/10/01 09:09:23;;;;;;;17.63;3.50;;;;;;;16.74;96.39;100435.97;5023984;28;20112;-65
2022/10/01 09:12:13;;;;;;;16.95;2.90;;;;;;;17.02;94.87;100434.97;5040559;28;20538;-65
2022/10/01 09:15:09;;;;;;;11.68;2.72;;;;;;;17.33;91.54;100432.03;5014500;28;20045;-66
2022/10/01 09:17:50;;;;;;;12.00;2.55;;;;;;;17.32;91.09;100430.34;5017287;28;20402;-65
2022/10/01 09:20:40;;;;;;;12.93;2.42;;;;;;;17.18;91.20;100458.78;5015637;28;20591;-65
2022/10/01 09:23:18;;;;;;;14.73;3.40;;;;;;;16.84;91.68;100442.38;5027215;28;20037;-67
2022/10/01 09:25:49;;;;;;;10.88;3.05;;;;;;;16.76;92.15;100463.31;5022212;28;20436;-67
2022/10/01 09:28:25;;;;;;;12.52;3.00;;;;;;;16.63;92.74;100461.47;5009352;28;20080;-66
2022/10/01 09:31:11;;;;;;;11.55;2.35;;;;;;;16.50;91.06;100460.56;5020041;28;20025;-67
2022/10/01 09:33:40;;;;;;;9.93;1.85;;;;;;;16.52;91.76;100467.50;5011466;28;20033;-67
2022/10/01 09:36:14;;;;;;;20.33;3.08;;;;;;;16.83;91.98;100459.31;5019731;28;20053;-67
2022/10/01 09:38:53;;;;;;;13.80;2.60;;;;;;;17.08;89.46;100456.81;5028491;28;20048;-66
2022/10/01 09:41:19;;;;;;;15.00;2.90;;;;;;;17.07;90.04;100474.63;5023077;28;20097;-65
2022/10/01 09:43:44;;;;;;;11.65;2.45;;;;;;;16.96;89.58;100490.41;5029893;28;20100;-66
2022/10/01 09:46:14;;;;;;;11.35;2.10;;;;;;;16.81;88.24;100495.81;5027614;28;20058;-64
2022/10/01 09:48:59;;;;;;;18.67;2.17;;;;;;;16.81;88.41;100485.16;5025367;28;20036;-64
2022/10/01 09:51:39;;;;;;;13.35;2.10;;;;;;;16.78;90.30;100493.34;5022111;28;20476;-67
2022/10/01 09:54:18;;;;;;;15.15;2.65;;;;;;;16.73;89.70;100490.97;5007327;28;20049;-65
2022/10/01 09:56:46;;;;;;;14.20;2.65;;;;;;;16.73;91.69;100495.44;5019840;28;20033;-66
2022/10/01 09:59:20;;;;;;;15.95;2.72;;;;;;;16.68;90.20;100509.06;5018441;28;20391;-65
2022/10/01 10:01:51;;;;;;;8.80;2.10;;;;;;;16.65;90.20;100541.19;5014651;28;20029;-65
2022/10/01 10:04:19;;;;;;;15.90;2.40;;;;;;;16.55;90.55;100508.97;5016280;28;20028;-64
2022/10/01 10:06:45;;;;;;;12.43;2.22;;;;;;;16.47;90.73;100519.28;5019488;28;20484;-68
2022/10/01 10:09:16;;;;;;;13.27;2.45;;;;;;;16.38;89.91;100523.38;5016859;28;20022;-65
2022/10/01 10:11:43;;;;;;;7.65;1.60;;;;;;;16.63;88.34;100522.66;5016327;28;20086;-71
2022/10/01 10:14:29;;;;;;;11.43;2.22;;;;;;;16.91;88.04;100550.13;5020588;28;20029;-67
2022/10/01 10:16:55;;;;;;;11.30;2.13;;;;;;;16.85;86.29;100537.22;5027514;28;20025;-69
2022/10/01 10:19:24;;;;;;;9.27;1.90;;;;;;;16.79;86.59;100550.91;5044772;28;20051;-71
2022/10/01 10:22:09;;;;;;;13.60;2.33;;;;;;;16.56;85.58;100547.94;5045320;28;20021;-66
2022/10/01 10:24:35;;;;;;;11.82;2.20;;;;;;;16.55;85.91;100571.03;5045897;28;20028;-67
2022/10/01 10:27:03;;;;;;;11.93;2.70;;;;;;;16.61;87.28;100561.78;5046285;28;20013;-69
2022/10/01 10:29:37;;;;;;;10.50;2.30;;;;;;;16.79;86.45;100594.34;5044754;28;20036;-67
2022/10/01 10:32:07;;;;;;;12.32;2.17;;;;;;;17.10;86.35;100577.38;5022067;28;20033;-66
2022/10/01 10:34:37;;;;;;;10.82;2.38;;;;;;;17.19;84.51;100571.44;5028677;28;20090;-64
2022/10/01 10:37:04;;;;;;;11.18;2.13;;;;;;;17.23;82.56;100583.59;5047103;28;20063;-70
2022/10/01 10:39:32;;;;;;;10.60;1.98;;;;;;;17.28;82.15;100576.13;5047306;28;20037;-68
2022/10/01 10:41:59;;;;;;;19.13;2.47;;;;;;;17.27;84.14;100577.09;5046708;28;20552;-65
2022/10/01 10:44:30;;;;;;;9.43;2.20;;;;;;;17.57;83.85;100575.13;5029241;28;20025;-66
2022/10/01 10:46:59;;;;;;;14.60;2.83;;;;;;;17.77;83.94;100579.13;5029239;28;20029;-64
2022/10/01 10:49:30;;;;;;;12.38;1.98;;;;;;;17.99;84.09;100582.94;5013573;28;20033;-67
2022/10/01 10:52:00;;;;;;;13.40;2.60;;;;;;;18.28;83.03;100587.22;5046531;28;20440;-68
2022/10/01 10:54:36;;;;;;;12.63;2.30;;;;;;;18.13;81.23;100595.34;5012406;28;20351;-69
2022/10/01 10:57:20;;;;;;;12.70;2.42;;;;;;;17.90;80.10;100604.91;5029752;28;20048;-66
2022/10/01 11:00:15;;;;;;;13.43;2.38;;;;;;;17.86;79.60;100604.28;5047236;28;20051;-65
2022/10/01 11:02:57;;;;;;;12.48;2.42;;;;;;;18.05;80.84;100633.19;5046707;28;20021;-69
2022/10/01 11:05:28;;;;;;;11.48;2.30;;;;;;;18.39;79.69;100616.66;5025289;28;20067;-67
2022/10/01 11:07:57;;;;;;;8.30;1.83;;;;;;;18.37;78.40;100660.41;5029122;28;20024;-67
2022/10/01 11:10:28;;;;;;;9.90;2.22;;;;;;;18.12;77.75;100644.28;5027881;28;20021;-72
2022/10/01 11:13:05;;;;;;;9.88;2.28;;;;;;;17.91;79.35;100644.78;5046400;28;20036;-65
2022/10/01 11:15:49;;;;;;;18.33;2.40;;;;;;;17.78;80.76;100644.78;5025740;28;20037;-64
2022/10/01 11:18:47;;;;;;;13.65;2.05;;;;;;;17.70;80.68;100643.59;5032188;28;20033;-66
2022/10/01 11:21:34;;;;;;;11.48;2.40;;;;;;;17.75;81.22;100668.09;5026976;28;20034;-66
2022/10/01 11:24:20;;;;;;;16.98;3.47;;;;;;;17.49;82.02;100650.22;5032732;28;20048;-67
2022/10/01 11:27:00;;;;;;;10.60;2.70;;;;;;;17.12;82.77;100653.50;5022696;28;20546;-64
2022/10/01 11:29:38;;;;;;;11.60;1.85;;;;;;;16.98;83.70;100674.81;5018020;28;20021;-65
2022/10/01 11:32:18;;;;;;;13.70;2.43;;;;;;;16.84;83.78;100667.69;5037245;28;20100;-68